Time;durP1;ratioP1;P1;durP2;ratioP2;P2;SDS_P1;SDS_P2;PMS_P1;PMS_P2;Temp;Humidity;BMP_temperature;BMP_pressure;BME280_temperature;BME280_humidity;BME280_pressure;Samples;Min_cycle;Max_cycle;Signal;HPM_P1;HPM_P2
2023/05/17 00:00:47;;;;;;;4.38;2.03;;;;;;;8.91;87.65;102115.78;5046180;28;20422;-71
2023/05/17 00:03:12;;;;;;;3.58;1.48;;;;;;;8.86;87.70;102115.31;5043868;28;20037;-71
2023/05/17 00:05:38;;;;;;;6.93;1.80;;;;;;;8.82;87.73;102124.25;5026665;28;20028;-71
2023/05/17 00:08:03;;;;;;;4.28;1.70;;;;;;;8.75;88.24;102114.34;5012098;28;20475;-71
2023/05/17 00:10:29;;;;;;;6.28;1.50;;;;;;;8.71;88.53;102120.66;5019199;28;20033;-71
2023/05/17 00:12:54;;;;;;;8.13;1.77;;;;;;;8.67;89.04;102123.59;5021094;28;20037;-71
2023/05/17 00:15:20;;;;;;;4.53;1.50;;;;;;;8.61;89.26;102127.47;5030255;28;20029;-71
2023/05/17 00:17:45;;;;;;;4.03;1.80;;;;;;;8.54;89.78;102124.47;5026883;28;20026;-71
2023/05/17 00:20:11;;;;;;;6.55;1.60;;;;;;;8.47;90.05;102125.84;5043596;28;20567;-71
2023/05/17 00:22:37;;;;;;;3.95;1.75;;;;;;;8.43;90.42;102127.00;5027072;28;20033;-71
2023/05/17 00:25:03;;;;;;;5.72;1.90;;;;;;;8.39;90.63;102126.38;5022674;28;20034;-71
2023/05/17 00:27:29;;;;;;;5.43;1.85;;;;;;;8.32;91.01;102126.91;5027886;28;20100;-71
2023/05/17 00:29:55;;;;;;;7.75;2.13;;;;;;;8.28;91.35;102123.72;5041995;28;20414;-71
2023/05/17 00:32:20;;;;;;;6.22;2.05;;;;;;;8.27;91.73;102123.81;5027826;28;20407;-70
2023/05/17 00:34:45;;;;;;;8.15;2.40;;;;;;;8.24;91.96;102124.88;5029885;28;20041;-71
2023/05/17 00:37:11;;;;;;;7.30;2.30;;;;;;;8.21;92.63;102122.50;5022376;28;20037;-71
2023/05/17 00:39:37;;;;;;;5.00;2.20;;;;;;;8.18;93.01;102120.97;5022443;28;20769;-71
2023/05/17 00:42:03;;;;;;;6.65;2.42;;;;;;;8.18;93.55;102125.31;5044298;28;20033;-71
2023/05/17 00:44:28;;;;;;;7.03;2.30;;;;;;;8.16;94.07;102125.41;5046429;28;20028;-71
2023/05/17 00:46:54;;;;;;;3.65;2.15;;;;;;;8.15;94.22;102125.50;5022503;28;20399;-71
2023/05/17 00:49:19;;;;;;;6.75;2.40;;;;;;;8.13;94.39;102119.63;5042326;28;20057;-71
2023/05/17 00:51:45;;;;;;;6.95;2.60;;;;;;;8.11;94.75;102121.50;5031796;28;20032;-71
2023/05/17 00:54:11;;;;;;;5.43;2.22;;;;;;;8.10;94.89;102123.28;5029654;28;20048;-71
2023/05/17 00:56:37;;;;;;;4.38;2.38;;;;;;;8.10;95.09;102117.25;5040322;28;20802;-71
2023/05/17 00:59:05;;;;;;;6.90;2.42;;;;;;;8.10;95.26;102125.00;5026412;28;20048;-71
2023/05/17 01:01:32;;;;;;;11.40;3.50;;;;;;;8.04;95.53;102118.50;5024444;28;20065;-71
2023/05/17 01:03:57;;;;;;;10.55;2.88;;;;;;;8.02;95.89;102115.22;5023363;28;20049;-71
2023/05/17 01:06:23;;;;;;;8.50;2.55;;;;;;;7.99;96.38;102118.03;5020502;28;20086;-71
2023/05/17 01:08:48;;;;;;;9.85;4.03;;;;;;;7.98;96.70;102132.69;5024844;28;20123;-71
2023/05/17 01:11:13;;;;;;;12.48;3.72;;;;;;;7.96;96.55;102129.38;5028709;28;20024;-71
2023/05/17 01:13:47;;;;;;;12.75;3.05;;;;;;;7.94;96.97;102128.66;5007364;28;20149;-71
2023/05/17 01:16:26;;;;;;;5.65;2.50;;;;;;;7.93;96.95;102132.19;5044195;28;20695;-71
2023/05/17 01:19:07;;;;;;;6.25;2.47;;;;;;;7.91;97.02;102131.47;5045127;28;20040;-71
2023/05/17 01:21:50;;;;;;;9.43;2.45;;;;;;;7.90;97.14;102139.31;5039844;28;20068;-70
2023/05/17 01:24:29;;;;;;;14.35;3.90;;;;;;;7.89;97.28;102137.66;5029923;28;20546;-71
2023/05/17 01:26:57;;;;;;;9.95;4.50;;;;;;;7.84;97.49;102135.41;5016931;28;20032;-71
2023/05/17 01:29:27;;;;;;;10.98;2.97;;;;;;;7.81;97.75;102127.84;5045732;28;20049;-71
2023/05/17 01:31:56;;;;;;;10.38;2.80;;;;;;;7.79;97.95;102127.13;5029076;28;20029;-71
2023/05/17 01:34:29;;;;;;;8.88;3.35;;;;;;;7.76;98.09;102132.50;5021266;28;20033;-71
2023/05/17 01:36:56;;;;;;;9.23;3.00;;;;;;;7.72;98.46;102136.22;5032018;28;20025;-71
2023/05/17 01:39:21;;;;;;;10.00;2.90;;;;;;;7.70;98.58;102135.50;5037958;28;20120;-71
2023/05/17 01:42:09;;;;;;;9.50;4.05;;;;;;;7.67;98.76;102133.16;5027622;28;20041;-70
2023/05/17 01:44:56;;;;;;;10.27;2.83;;;;;;;7.65;98.86;102135.84;5006925;28;20040;-70
2023/05/17 01:47:34;;;;;;;8.75;3.03;;;;;;;7.62;99.01;102137.81;5036979;28;20106;-71
2023/05/17 01:50:02;;;;;;;12.15;3.50;;;;;;;7.60;99.25;102145.66;5036914;28;20065;-71
2023/05/17 01:52:37;;;;;;;10.27;3.30;;;;;;;7.58;99.29;102145.75;5016739;28;20021;-71
2023/05/17 01:55:15;;;;;;;9.98;3.20;;;;;;;7.57;99.32;102149.28;5043043;28;20060;-70
2023/05/17 01:57:43;;;;;;;12.07;3.05;;;;;;;7.57;99.33;102138.94;5043627;28;20025;-71
2023/05/17 02:00:11;;;;;;;10.95;2.85;;;;;;;7.53;99.33;102145.22;5043314;28;20039;-72
2023/05/17 02:02:44;;;;;;;13.32;3.08;;;;;;;7.49;99.34;102146.34;5035209;28;20025;-70
2023/05/17 02:05:10;;;;;;;10.63;3.53;;;;;;;7.46;99.65;102145.72;5028618;28;20044;-71
2023/05/17 02:07:38;;;;;;;11.45;3.45;;;;;;;7.44;99.82;102145.88;5021126;28;20021;-71
2023/05/17 02:10:04;;;;;;;10.35;3.80;;;;;;;7.42;99.71;102147.69;5046532;28;20469;-71
2023/05/17 02:12:30;;;;;;;15.32;3.58;;;;;;;7.40;100.00;102152.13;5027879;28;20051;-70
2023/05/17 02:14:56;;;;;;;10.70;4.03;;;;;;;7.38;99.94;102156.56;5048332;28;20494;-70
2023/05/17 02:17:21;;;;;;;15.20;4.22;;;;;;;7.37;100.00;102162.69;5047325;28;20086;-71
2023/05/17 02:19:47;;;;;;;13.23;3.60;;;;;;;7.32;100.00;102164.72;5048449;28;20052;-71
2023/05/17 02:22:13;;;;;;;14.48;4.00;;;;;;;7.29;100.00;102165.75;5046952;28;20509;-70
2023/05/17 02:24:38;;;;;;;9.88;3.70;;;;;;;7.27;100.00;102156.44;5040151;28;20049;-70
2023/05/17 02:27:04;;;;;;;11.90;4.10;;;;;;;7.24;100.00;102164.41;5027537;28;20029;-71
2023/05/17 02:29:31;;;;;;;10.00;4.00;;;;;;;7.19;100.00;102162.94;5008979;28;20160;-70
2023/05/17 02:31:57;;;;;;;12.02;4.40;;;;;;;7.20;100.00;102161.22;5050539;28;20033;-70
2023/05/17 02:34:23;;;;;;;18.75;4.65;;;;;;;7.16;100.00;102155.41;5031567;28;20478;-70
2023/05/17 02:36:49;;;;;;;17.45;5.25;;;;;;;7.13;100.00;102152.22;5031267;28;20071;-72
2023/05/17 02:39:14;;;;;;;10.40;5.55;;;;;;;7.08;100.00;102144.75;5028936;28;20044;-71
2023/05/17 02:41:40;;;;;;;10.02;4.88;;;;;;;7.06;100.00;102145.78;5047407;28;20028;-71
2023/05/17 02:44:05;;;;;;;10.13;4.35;;;;;;;7.06;100.00;102158.69;5029451;28;20056;-71
2023/05/17 02:46:31;;;;;;;14.98;5.05;;;;;;;7.06;100.00;102163.84;5008175;28;20408;-71
2023/05/17 02:48:56;;;;;;;19.90;6.50;;;;;;;7.03;100.00;102167.47;5036726;28;20203;-71
2023/05/17 02:51:22;;;;;;;11.35;5.40;;;;;;;7.02;100.00;102168.38;5048194;28;20021;-70
2023/05/17 02:53:48;;;;;;;12.70;5.20;;;;;;;7.01;100.00;102164.97;5031708;28;20040;-71
2023/05/17 02:56:13;;;;;;;11.77;5.05;;;;;;;7.00;100.00;102165.06;5026910;28;20029;-70
2023/05/17 02:58:39;;;;;;;13.23;5.10;;;;;;;6.99;100.00;102166.84;5006404;28;20121;-71
2023/05/17 03:01:05;;;;;;;9.70;4.38;;;;;;;6.96;100.00;102164.44;5031062;28;20399;-71
2023/05/17 03:03:30;;;;;;;17.17;5.20;;;;;;;6.97;100.00;102175.59;5009277;28;20098;-71
2023/05/17 03:06:00;;;;;;;14.38;5.75;;;;;;;6.97;100.00;102170.44;5031352;28;20036;-71
2023/05/17 03:08:27;;;;;;;14.00;5.13;;;;;;;6.96;100.00;102176.53;5032078;28;20227;-71
2023/05/17 03:10:53;;;;;;;12.05;5.63;;;;;;;6.94;100.00;102186.94;5028775;28;20329;-71
2023/05/17 03:13:19;;;;;;;19.05;6.07;;;;;;;6.92;100.00;102177.66;5029033;28;20053;-71
2023/05/17 03:15:44;;;;;;;16.25;5.30;;;;;;;6.90;100.00;102170.00;5028244;28;20025;-71
2023/05/17 03:18:10;;;;;;;18.48;6.28;;;;;;;6.87;100.00;102179.69;5032889;28;20565;-71
2023/05/17 03:20:37;;;;;;;10.43;5.40;;;;;;;6.83;100.00;102190.19;5035193;28;20035;-71
2023/05/17 03:23:03;;;;;;;11.73;5.43;;;;;;;6.82;100.00;102182.56;5028906;28;20060;-71
2023/05/17 03:25:29;;;;;;;12.27;7.05;;;;;;;6.79;100.00;102186.16;5026164;28;20021;-70
2023/05/17 03:27:55;;;;;;;18.42;5.82;;;;;;;6.75;100.00;102187.28;5030476;28;20028;-71
2023/05/17 03:30:20;;;;;;;14.75;6.22;;;;;;;6.74;100.00;102190.78;5029356;28;21624;-70
2023/05/17 03:32:46;;;;;;;17.08;6.43;;;;;;;6.73;100.00;102188.31;5042720;28;20614;-72
2023/05/17 03:35:13;;;;;;;14.27;5.93;;;;;;;6.73;100.00;102193.47;5018733;28;20024;-71
2023/05/17 03:37:41;;;;;;;13.45;6.22;;;;;;;6.72;100.00;102194.38;5011361;28;20020;-71
2023/05/17 03:40:07;;;;;;;26.80;6.93;;;;;;;6.69;100.00;102192.00;5028491;28;20052;-70
2023/05/17 03:42:33;;;;;;;12.65;5.68;;;;;;;6.65;100.00;102204.25;5026455;28;20052;-70
2023/05/17 03:44:59;;;;;;;21.52;7.45;;;;;;;6.66;100.00;102199.91;5044541;28;20375;-70
2023/05/17 03:47:24;;;;;;;16.05;6.45;;;;;;;6.64;100.00;102205.16;5014030;28;20475;-70
2023/05/17 03:49:50;;;;;;;17.98;6.75;;;;;;;6.66;100.00;102205.06;5027598;28;20060;-70
2023/05/17 03:52:16;;;;;;;24.50;7.60;;;;;;;6.63;100.00;102209.50;5051238;28;20036;-70
2023/05/17 03:54:42;;;;;;;18.60;6.43;;;;;;;6.64;100.00;102205.16;5029145;28;20038;-70
2023/05/17 03:57:07;;;;;;;18.30;7.32;;;;;;;6.67;100.00;102214.44;5030934;28;20033;-70
2023/05/17 03:59:34;;;;;;;24.63;7.55;;;;;;;6.69;100.00;102210.06;5028064;28;20053;-70
2023/05/17 04:02:00;;;;;;;16.90;7.53;;;;;;;6.72;100.00;102213.25;5028154;28;20044;-70
2023/05/17 04:04:27;;;;;;;21.02;7.35;;;;;;;6.75;100.00;102217.41;5021116;28;20441;-70
2023/05/17 04:06:53;;;;;;;20.33;7.80;;;;;;;6.77;100.00;102211.22;5034535;28;20090;-70
2023/05/17 04:09:18;;;;;;;24.50;9.20;;;;;;;6.80;100.00;102220.53;5025233;28;20407;-70
2023/05/17 04:11:44;;;;;;;27.63;9.13;;;;;;;6.83;100.00;102215.97;5028375;28;20028;-70
2023/05/17 04:14:10;;;;;;;23.27;7.65;;;;;;;6.86;100.00;102214.97;5027728;28;20041;-70
2023/05/17 04:16:36;;;;;;;24.13;9.07;;;;;;;6.89;100.00;102222.50;5027722;28;20035;-70
2023/05/17 04:19:02;;;;;;;23.90;9.32;;;;;;;6.97;100.00;102220.28;5001666;28;20048;-71
2023/05/17 04:21:28;;;;;;;31.02;8.07;;;;;;;6.99;100.00;102225.34;5028521;28;20033;-70
2023/05/17 04:23:55;;;;;;;23.67;8.25;;;;;;;7.02;100.00;102232.84;5021977;28;20041;-70
2023/05/17 04:26:20;;;;;;;24.73;7.47;;;;;;;7.06;100.00;102229.16;5026886;28;20033;-70
2023/05/17 04:28:46;;;;;;;23.25;8.80;;;;;;;7.11;100.00;102234.84;5028639;28;20055;-70
2023/05/17 04:31:15;;;;;;;21.13;7.55;;;;;;;7.14;100.00;102239.81;5048956;28;20032;-70
2023/05/17 04:33:41;;;;;;;20.45;7.88;;;;;;;7.17;100.00;102237.03;5021815;28;20315;-71
2023/05/17 04:36:07;;;;;;;23.02;8.75;;;;;;;7.22;100.00;102242.72;5020855;28;20086;-70
2023/05/17 04:38:33;;;;;;;18.15;7.63;;;;;;;7.25;100.00;102240.88;5029024;28;20037;-71
2023/05/17 04:41:06;;;;;;;28.75;7.60;;;;;;;7.33;100.00;102243.81;5025585;28;20040;-71
2023/05/17 04:43:35;;;;;;;28.30;7.90;;;;;;;7.40;100.00;102247.63;5033372;28;20507;-70
2023/05/17 04:46:04;;;;;;;25.17;8.45;;;;;;;7.52;100.00;102238.28;5025138;28;20686;-70
2023/05/17 04:48:31;;;;;;;25.83;8.70;;;;;;;7.54;100.00;102241.56;5025146;28;20087;-70
2023/05/17 04:51:00;;;;;;;25.23;8.10;;;;;;;7.55;100.00;102238.91;5029555;28;20421;-71
2023/05/17 04:53:25;;;;;;;27.02;10.48;;;;;;;7.59;100.00;102249.81;5036662;28;20049;-70
2023/05/17 04:55:51;;;;;;;22.20;9.05;;;;;;;7.78;100.00;102252.03;5003619;28;20025;-70
2023/05/17 04:58:17;;;;;;;22.50;8.80;;;;;;;7.91;100.00;102247.72;5042407;28;20087;-71
2023/05/17 05:00:46;;;;;;;24.88;8.55;;;;;;;7.99;100.00;102254.94;5011906;28;20048;-70
2023/05/17 05:03:12;;;;;;;20.65;8.95;;;;;;;8.07;100.00;102254.41;5018438;28;20040;-71
2023/05/17 05:05:38;;;;;;;24.05;8.68;;;;;;;8.27;100.00;102268.53;5027820;28;20107;-70
2023/05/17 05:08:03;;;;;;;25.40;8.50;;;;;;;8.43;100.00;102268.34;5041581;28;20026;-71
2023/05/17 05:10:30;;;;;;;29.27;8.30;;;;;;;8.46;100.00;102276.72;5029888;28;20056;-71
2023/05/17 05:12:56;;;;;;;21.80;7.78;;;;;;;8.57;100.00;102274.22;5027056;28;20036;-71
2023/05/17 05:15:23;;;;;;;19.48;7.57;;;;;;;8.65;100.00;102284.03;5041845;28;20610;-70
2023/05/17 05:17:53;;;;;;;22.00;7.75;;;;;;;8.72;100.00;102276.66;5031975;28;20026;-71
2023/05/17 05:20:19;;;;;;;26.92;7.13;;;;;;;8.81;100.00;102276.00;5025794;28;20036;-71
2023/05/17 05:22:44;;;;;;;28.02;8.43;;;;;;;8.89;100.00;102283.22;5004733;28;20034;-70
2023/05/17 05:25:11;;;;;;;29.10;7.35;;;;;;;8.99;100.00;102288.59;5020193;28;20045;-70
2023/05/17 05:27:36;;;;;;;25.60;7.93;;;;;;;9.11;100.00;102287.72;5042866;28;20112;-70
2023/05/17 05:30:03;;;;;;;21.55;7.50;;;;;;;9.15;100.00;102296.91;5031950;28;20052;-70
2023/05/17 05:32:28;;;;;;;25.30;7.47;;;;;;;9.20;100.00;102301.75;5020430;28;20433;-71
2023/05/17 05:34:54;;;;;;;24.73;7.82;;;;;;;9.34;100.00;102294.66;5027638;28;20041;-70
2023/05/17 05:37:19;;;;;;;20.10;6.88;;;;;;;9.34;100.00;102298.97;5030489;28;20032;-70
2023/05/17 05:39:45;;;;;;;27.92;8.23;;;;;;;9.28;100.00;102309.78;5027111;28;20041;-70
2023/05/17 05:42:11;;;;;;;18.23;6.50;;;;;;;9.35;100.00;102309.22;5023963;28;20033;-71
2023/05/17 05:44:36;;;;;;;28.80;7.68;;;;;;;9.58;100.00;102306.72;5022962;28;20101;-71
2023/05/17 05:47:02;;;;;;;26.77;6.90;;;;;;;9.77;100.00;102316.56;5008627;28;20109;-70
2023/05/17 05:49:28;;;;;;;23.90;7.13;;;;;;;9.80;100.00;102311.16;5017116;28;20057;-71
2023/05/17 05:51:54;;;;;;;27.33;7.25;;;;;;;9.83;100.00;102308.34;5027632;28;20538;-71
2023/05/17 05:54:20;;;;;;;24.35;7.22;;;;;;;9.84;100.00;102312.56;5038322;28;20041;-71
2023/05/17 05:56:46;;;;;;;26.60;7.10;;;;;;;9.90;99.18;102317.28;5044301;28;20025;-71
2023/05/17 05:59:13;;;;;;;25.65;7.28;;;;;;;9.88;99.39;102321.78;5027417;28;20641;-71
2023/05/17 06:01:40;;;;;;;23.17;7.60;;;;;;;9.98;98.37;102314.13;5043905;28;20033;-71
2023/05/17 06:04:05;;;;;;;20.48;7.25;;;;;;;10.09;96.20;102323.69;5040851;28;20654;-71
2023/05/17 06:06:31;;;;;;;19.98;5.88;;;;;;;10.22;96.50;102321.81;5039013;28;20037;-71
2023/05/17 06:08:56;;;;;;;24.17;5.90;;;;;;;10.29;95.58;102328.19;5039665;28;20555;-71
2023/05/17 06:11:25;;;;;;;20.58;6.68;;;;;;;10.28;92.53;102329.16;5041692;28;20037;-71
2023/05/17 06:13:50;;;;;;;17.80;6.07;;;;;;;10.49;92.34;102334.50;5024365;28;20044;-71
2023/05/17 06:16:16;;;;;;;25.95;6.50;;;;;;;10.80;91.21;102332.09;5031100;28;20284;-70
2023/05/17 06:18:41;;;;;;;22.95;5.47;;;;;;;10.95;88.96;102332.69;5023095;28;20041;-70
2023/05/17 06:21:07;;;;;;;14.40;5.13;;;;;;;10.88;88.83;102336.69;5044195;28;20064;-70
2023/05/17 06:23:32;;;;;;;17.60;5.03;;;;;;;10.93;88.86;102334.56;5043658;28;20087;-71
2023/05/17 06:25:58;;;;;;;20.73;5.55;;;;;;;10.85;87.29;102342.09;5041478;28;20037;-70
2023/05/17 06:28:23;;;;;;;25.50;5.43;;;;;;;11.20;85.93;102333.31;5024704;28;20037;-71
2023/05/17 06:30:48;;;;;;;16.10;4.50;;;;;;;11.13;84.26;102337.34;5044368;28;20036;-71
2023/05/17 06:33:14;;;;;;;22.60;4.72;;;;;;;11.40;83.62;102332.53;5034977;28;20513;-71
2023/05/17 06:35:39;;;;;;;24.35;5.25;;;;;;;11.77;82.31;102332.16;5044616;28;20092;-71
2023/05/17 06:38:05;;;;;;;17.35;4.78;;;;;;;12.19;81.74;102333.94;5037322;28;20037;-71
2023/05/17 06:40:30;;;;;;;21.45;4.78;;;;;;;12.29;74.87;102336.56;5026172;28;20033;-71
2023/05/17 06:42:56;;;;;;;16.50;5.43;;;;;;;12.40;73.39;102339.91;5043664;28;20496;-71
2023/05/17 06:45:21;;;;;;;21.38;4.28;;;;;;;12.49;73.34;102332.25;5026129;28;20025;-71
2023/05/17 06:47:47;;;;;;;18.38;4.03;;;;;;;12.82;73.37;102333.75;5040510;28;20487;-71
2023/05/17 06:50:12;;;;;;;24.60;4.53;;;;;;;13.13;70.82;102338.84;5024100;23;20038;-69
2023/05/17 06:52:38;;;;;;;18.40;4.43;;;;;;;13.31;70.29;102333.84;5021871;28;20084;-69
2023/05/17 06:55:04;;;;;;;16.23;4.15;;;;;;;13.39;68.45;102337.41;5023632;28;20042;-69
2023/05/17 06:57:30;;;;;;;12.13;3.53;;;;;;;13.49;66.97;102340.03;5004759;28;20040;-69
2023/05/17 06:59:56;;;;;;;22.17;3.72;;;;;;;13.83;64.78;102342.19;5003370;28;20045;-68
2023/05/17 07:02:21;;;;;;;27.42;3.92;;;;;;;14.20;62.98;102339.63;5022296;28;20540;-69
2023/05/17 07:04:47;;;;;;;15.80;4.05;;;;;;;14.35;60.92;102349.56;5009335;28;20037;-69
2023/05/17 07:07:12;;;;;;;14.38;2.45;;;;;;;14.37;59.63;102351.09;5010337;28;20022;-69
2023/05/17 07:09:38;;;;;;;17.58;2.80;;;;;;;14.19;59.09;102351.00;5022210;28;20056;-68
2023/05/17 07:12:04;;;;;;;12.40;2.67;;;;;;;14.38;59.47;102354.53;5024780;28;20071;-68
2023/05/17 07:14:30;;;;;;;12.75;2.95;;;;;;;14.46;58.10;102359.03;5001838;28;20511;-69
2023/05/17 07:16:56;;;;;;;17.55;4.35;;;;;;;14.78;56.14;102363.84;5007266;28;20044;-69
2023/05/17 07:19:22;;;;;;;18.10;2.58;;;;;;;15.03;55.41;102354.50;5028323;28;20056;-69
2023/05/17 07:21:47;;;;;;;13.23;2.70;;;;;;;15.43;55.93;102349.81;5009552;28;20092;-70
2023/05/17 07:24:13;;;;;;;13.45;2.28;;;;;;;15.88;53.81;102352.31;5027312;28;20119;-69
2023/05/17 07:26:38;;;;;;;16.60;3.28;;;;;;;16.25;52.78;102351.19;5008809;28;20044;-68
2023/05/17 07:29:03;;;;;;;11.10;2.00;;;;;;;15.79;50.87;102358.44;5008999;28;20080;-73
2023/05/17 07:31:29;;;;;;;12.85;2.30;;;;;;;15.14;51.46;102369.13;5024598;28;20033;-72
2023/05/17 07:33:54;;;;;;;16.25;2.10;;;;;;;15.49;51.46;102364.88;5025597;28;20049;-71
2023/05/17 07:36:20;;;;;;;11.77;2.17;;;;;;;15.89;51.67;102359.16;5007182;28;20065;-72
2023/05/17 07:38:45;;;;;;;8.57;2.33;;;;;;;14.89;52.05;102368.88;5008743;28;20091;-72
2023/05/17 07:41:13;;;;;;;12.15;1.80;;;;;;;15.38;51.17;102369.34;5008637;28;20495;-72
2023/05/17 07:43:39;;;;;;;14.80;2.08;;;;;;;14.78;51.51;102382.94;5009456;28;20049;-72
2023/05/17 07:46:04;;;;;;;13.73;2.05;;;;;;;14.06;53.21;102373.16;5009350;28;20045;-71
2023/05/17 07:48:30;;;;;;;15.10;2.50;;;;;;;13.76;55.94;102374.97;5019303;28;20049;-71
2023/05/17 07:50:55;;;;;;;10.43;1.60;;;;;;;13.54;56.71;102384.75;5027103;28;20511;-72
2023/05/17 07:53:21;;;;;;;15.50;2.25;;;;;;;13.51;56.17;102381.59;5006659;28;20128;-71
2023/05/17 07:55:46;;;;;;;14.93;3.03;;;;;;;13.48;56.37;102379.25;5027199;28;20032;-71
2023/05/17 07:58:12;;;;;;;11.65;2.17;;;;;;;13.84;56.15;102382.91;5005926;28;20516;-71
2023/05/17 08:00:38;;;;;;;15.02;1.92;;;;;;;14.72;52.70;102386.13;5024255;28;20020;-71
2023/05/17 08:03:03;;;;;;;10.82;1.60;;;;;;;15.82;49.09;102376.44;5024128;28;20500;-71
2023/05/17 08:05:29;;;;;;;15.48;1.85;;;;;;;16.40;47.23;102379.41;5008317;28;20048;-71
2023/05/17 08:07:54;;;;;;;7.72;2.05;;;;;;;16.59;45.35;102386.22;5008153;28;20044;-71
2023/05/17 08:10:20;;;;;;;14.25;2.80;;;;;;;16.95;44.13;102388.66;5024171;28;20051;-71
2023/05/17 08:12:45;;;;;;;16.17;2.45;;;;;;;16.46;46.26;102381.41;5004151;28;20060;-72
2023/05/17 08:15:11;;;;;;;6.18;1.90;;;;;;;16.50;46.17;102377.47;5007943;28;20534;-72
2023/05/17 08:17:36;;;;;;;14.30;2.20;;;;;;;16.61;47.26;102373.78;5006624;28;20022;-69
2023/05/17 08:20:04;;;;;;;12.00;1.80;;;;;;;16.86;45.77;102374.72;5023113;28;20142;-69
2023/05/17 08:22:30;;;;;;;17.35;1.70;;;;;;;16.71;46.71;102375.31;5023594;28;20042;-69
2023/05/17 08:24:55;;;;;;;8.65;1.70;;;;;;;17.08;45.79;102378.53;4986899;28;20050;-70
2023/05/17 08:27:21;;;;;;;12.18;1.88;;;;;;;17.14;46.09;102375.28;5014303;28;20036;-68
2023/05/17 08:29:46;;;;;;;14.30;1.83;;;;;;;17.37;45.35;102385.97;5005478;28;20585;-69
2023/05/17 08:32:12;;;;;;;13.75;1.80;;;;;;;17.50;44.18;102378.44;5006060;28;20041;-69
2023/05/17 08:34:37;;;;;;;5.57;1.52;;;;;;;17.09;44.75;102383.63;5024504;28;20050;-69
2023/05/17 08:37:03;;;;;;;8.85;1.67;;;;;;;17.24;46.05;102381.19;5007963;28;20079;-70
2023/05/17 08:39:28;;;;;;;14.80;2.33;;;;;;;16.80;46.60;102388.41;5007600;28;20057;-69
2023/05/17 08:41:58;;;;;;;14.93;3.05;;;;;;;15.87;49.09;102392.50;4990674;28;20049;-69
2023/05/17 08:44:25;;;;;;;12.50;1.77;;;;;;;15.58;49.71;102392.75;5004176;28;20037;-68
2023/05/17 08:46:52;;;;;;;11.02;1.67;;;;;;;14.96;50.54;102403.88;5008054;28;20471;-69
2023/05/17 08:49:30;;;;;;;14.18;2.40;;;;;;;14.88;51.92;102397.72;5022156;28;20053;-69
2023/05/17 08:51:59;;;;;;;12.10;2.13;;;;;;;15.62;52.13;102401.09;5025145;28;20523;-68
2023/05/17 08:54:25;;;;;;;15.10;1.88;;;;;;;16.55;48.31;102394.38;5019861;28;20053;-68
2023/05/17 08:56:53;;;;;;;14.18;2.13;;;;;;;16.86;45.62;102380.78;5022679;28;20391;-69
2023/05/17 08:59:20;;;;;;;17.25;3.53;;;;;;;16.33;46.48;102394.91;5006719;28;20553;-69
2023/05/17 09:01:51;;;;;;;9.75;2.05;;;;;;;15.80;49.64;102386.22;5023791;28;20487;-68
2023/05/17 09:04:17;;;;;;;14.48;1.90;;;;;;;15.11;46.72;102398.97;5010052;28;20045;-72
2023/05/17 09:06:43;;;;;;;11.55;2.08;;;;;;;15.05;49.69;102403.97;5022956;28;20042;-69
2023/05/17 09:09:09;;;;;;;9.95;2.40;;;;;;;14.89;49.79;102410.66;5007209;28;20056;-70
2023/05/17 09:11:35;;;;;;;12.18;2.17;;;;;;;14.52;51.13;102405.41;5022428;28;20064;-70
2023/05/17 09:14:03;;;;;;;15.85;2.97;;;;;;;14.53;52.08;102407.88;5002599;28;20059;-69
2023/05/17 09:16:30;;;;;;;11.18;1.90;;;;;;;14.49;52.84;102408.34;5023508;28;20526;-69
2023/05/17 09:18:57;;;;;;;12.05;2.10;;;;;;;14.40;51.41;102400.38;5000880;28;20037;-69
2023/05/17 09:21:24;;;;;;;8.75;1.60;;;;;;;14.63;52.11;102401.84;5001627;28;20131;-69
2023/05/17 09:23:53;;;;;;;13.63;2.22;;;;;;;14.65;52.49;102410.34;5024615;28;20539;-70
2023/05/17 09:26:20;;;;;;;11.38;1.70;;;;;;;14.30;50.97;102411.81;5009809;28;20124;-70
2023/05/17 09:28:47;;;;;;;8.18;1.75;;;;;;;14.82;49.86;102409.56;5005244;28;20045;-70
2023/05/17 09:31:15;;;;;;;15.82;2.10;;;;;;;15.53;46.91;102405.44;4988701;28;20076;-69
2023/05/17 09:33:50;;;;;;;14.27;2.28;;;;;;;15.88;45.57;102394.16;5006076;28;20045;-69
2023/05/17 09:36:17;;;;;;;9.45;1.67;;;;;;;15.61;47.83;102399.44;5024286;28;20038;-70
2023/05/17 09:38:43;;;;;;;12.35;2.20;;;;;;;15.52;48.58;102403.78;5023586;28;20053;-69
2023/05/17 09:41:08;;;;;;;10.82;2.65;;;;;;;15.28;49.68;102405.19;5021856;28;20490;-68
2023/05/17 09:43:34;;;;;;;8.60;1.50;;;;;;;15.30;50.35;102408.50;5020545;28;20046;-69
2023/05/17 09:46:00;;;;;;;14.48;2.55;;;;;;;16.12;50.25;102397.91;5023451;28;20305;-69
2023/05/17 09:48:26;;;;;;;9.48;1.85;;;;;;;16.59;47.71;102399.31;5007927;28;20041;-69
2023/05/17 09:50:52;;;;;;;17.00;1.85;;;;;;;15.92;47.94;102402.53;5007291;28;20041;-69
2023/05/17 09:53:32;;;;;;;12.80;1.75;;;;;;;15.60;48.69;102398.63;5008326;28;20052;-70
2023/05/17 09:55:59;;;;;;;14.27;1.77;;;;;;;15.25;49.61;102410.72;5025353;28;20048;-69
2023/05/17 09:58:27;;;;;;;12.02;2.47;;;;;;;14.90;50.94;102411.47;5006156;28;20048;-69
2023/05/17 10:00:57;;;;;;;13.30;2.13;;;;;;;14.80;50.92;102408.91;5021425;28;20121;-69
2023/05/17 10:03:25;;;;;;;12.13;1.98;;;;;;;15.70;50.59;102401.97;5016186;28;20033;-68
2023/05/17 10:05:52;;;;;;;12.77;2.00;;;;;;;16.34;47.99;102394.75;5023581;28;20475;-69
2023/05/17 10:08:22;;;;;;;10.00;1.63;;;;;;;16.52;46.26;102392.09;5005720;28;20106;-69
2023/05/17 10:10:49;;;;;;;9.85;1.95;;;;;;;16.82;46.30;102383.84;5022810;28;20128;-69
2023/05/17 10:13:19;;;;;;;15.52;1.90;;;;;;;16.83;44.74;102375.03;5009023;28;20057;-69
2023/05/17 10:15:46;;;;;;;6.55;1.30;;;;;;;16.46;45.79;102389.25;5028347;28;20058;-70
2023/05/17 10:18:12;;;;;;;11.25;1.80;;;;;;;16.00;48.82;102399.94;5012098;28;20044;-69
2023/05/17 10:20:39;;;;;;;7.82;1.45;;;;;;;15.58;46.97;102397.97;5011028;28;20056;-69
2023/05/17 10:23:06;;;;;;;11.90;1.60;;;;;;;15.61;48.66;102399.44;5026438;28;20095;-69
2023/05/17 10:25:31;;;;;;;15.65;1.88;;;;;;;15.56;48.25;102399.91;5028671;28;20061;-70
2023/05/17 10:27:58;;;;;;;13.30;1.95;;;;;;;16.14;46.66;102396.78;5008721;28;20067;-69
2023/05/17 10:30:27;;;;;;;15.23;1.45;;;;;;;16.53;45.91;102385.03;5029200;28;20605;-69
2023/05/17 10:32:52;;;;;;;17.92;1.73;;;;;;;17.03;45.07;102372.97;5024247;28;20052;-69
2023/05/17 10:35:19;;;;;;;11.75;1.52;;;;;;;17.12;45.57;102380.69;5025871;28;20037;-69
2023/05/17 10:37:45;;;;;;;6.88;1.30;;;;;;;17.19;43.95;102374.78;5010478;28;20060;-70
2023/05/17 10:40:16;;;;;;;9.48;1.60;;;;;;;17.61;44.15;102371.19;5009469;28;20138;-70
2023/05/17 10:42:52;;;;;;;14.18;1.45;;;;;;;17.66;43.55;102361.03;5009655;28;20434;-69
2023/05/17 10:45:24;;;;;;;10.13;1.73;;;;;;;17.28;41.97;102363.34;5016122;28;20068;-69
2023/05/17 10:47:51;;;;;;;8.93;1.50;;;;;;;16.88;43.72;102364.91;5011552;28;20033;-70
2023/05/17 10:50:24;;;;;;;15.32;1.95;;;;;;;16.62;44.30;102371.00;5009380;28;20040;-69
2023/05/17 10:52:51;;;;;;;14.68;2.55;;;;;;;16.65;45.10;102362.00;5011373;28;20465;-69
2023/05/17 10:55:23;;;;;;;16.88;1.75;;;;;;;17.05;46.18;102355.28;5026309;28;20080;-70
2023/05/17 10:58:16;;;;;;;11.13;1.77;;;;;;;17.19;48.22;102359.06;5022447;28;20438;-71
2023/05/17 11:00:49;;;;;;;6.57;1.42;;;;;;;17.10;44.88;102360.84;5025167;28;20064;-71
2023/05/17 11:03:21;;;;;;;11.80;1.70;;;;;;;16.45;45.84;102361.44;5024072;28;20064;-71
2023/05/17 11:06:11;;;;;;;9.40;1.25;;;;;;;16.35;44.35;102365.00;4998080;28;20454;-71
2023/05/17 11:09:02;;;;;;;8.13;2.08;;;;;;;16.23;46.41;102362.81;4985664;28;20167;-71
2023/05/17 11:11:27;;;;;;;11.82;2.15;;;;;;;16.43;47.31;102368.66;5024400;28;20049;-71
2023/05/17 11:13:56;;;;;;;12.27;1.52;;;;;;;16.38;46.40;102366.47;4987803;28;20053;-71
2023/05/17 11:16:35;;;;;;;13.23;2.00;;;;;;;16.36;43.83;102360.59;4988179;28;20042;-71
2023/05/17 11:19:18;;;;;;;5.95;1.10;;;;;;;16.80;41.77;102359.59;5021220;28;20041;-71
2023/05/17 11:21:46;;;;;;;4.40;1.15;;;;;;;16.93;42.58;102355.59;5010182;28;20086;-71